createdAt,value
2022-12-28T00:05:38.346Z,4.04
2022-12-28T00:13:13.608Z,4.11
2022-12-28T00:20:57.436Z,4.20
2022-12-28T00:28:32.740Z,4.28
2022-12-28T00:36:07.547Z,4.29
2022-12-28T00:43:42.742Z,4.34
2022-12-28T00:51:18.515Z,4.35
2022-12-28T00:58:57.672Z,4.41
2022-12-28T01:06:32.068Z,4.42
2022-12-28T01:14:07.333Z,4.41
2022-12-28T01:21:41.436Z,4.43
2022-12-28T01:29:16.733Z,4.47
2022-12-28T01:36:50.637Z,4.45
2022-12-28T01:44:44.530Z,4.42
2022-12-28T01:52:23.432Z,4.38
2022-12-28T02:00:03.017Z,4.34
2022-12-28T02:07:46.149Z,4.26
2022-12-28T02:15:23.355Z,4.21
2022-12-28T02:23:22.086Z,4.14
2022-12-28T02:31:04.425Z,4.12
2022-12-28T02:38:46.382Z,4.07
2022-12-28T02:46:41.855Z,4.04
2022-12-28T02:54:49.381Z,4.00
2022-12-28T03:02:49.982Z,3.97
2022-12-28T03:10:30.656Z,3.92
2022-12-28T03:18:27.960Z,3.92
2022-12-28T03:26:21.677Z,3.88
2022-12-28T03:34:07.040Z,3.88
2022-12-28T03:41:47.603Z,3.84
2022-12-28T03:49:24.134Z,3.85
2022-12-28T03:56:57.917Z,3.86
2022-12-28T04:04:33.181Z,3.83
2022-12-28T04:12:08.174Z,3.82
2022-12-28T04:19:43.510Z,3.78
2022-12-28T04:27:17.391Z,3.76
2022-12-28T04:34:52.718Z,3.75
2022-12-28T04:42:27.289Z,3.74
2022-12-28T04:50:02.496Z,3.71
2022-12-28T04:57:36.352Z,3.67
2022-12-28T05:05:12.131Z,3.65
2022-12-28T05:12:46.417Z,3.65
2022-12-28T05:20:21.957Z,3.67
2022-12-28T05:27:56.385Z,3.70
2022-12-28T05:35:31.652Z,3.71
2022-12-28T05:43:05.502Z,3.74
2022-12-28T05:50:41.203Z,3.79
2022-12-28T05:58:15.044Z,3.83
2022-12-28T06:05:50.720Z,3.87
2022-12-28T06:13:25.240Z,3.93
2022-12-28T06:21:04.271Z,4.01
2022-12-28T06:28:39.089Z,4.05
2022-12-28T06:36:19.918Z,4.10
2022-12-28T06:43:54.766Z,4.14
2022-12-28T06:51:32.036Z,4.18
2022-12-28T06:59:06.850Z,4.19
2022-12-28T07:06:44.638Z,4.18
2022-12-28T07:14:18.983Z,4.17
2022-12-28T07:21:54.283Z,4.21
2022-12-28T07:29:28.161Z,4.22
2022-12-28T07:37:03.348Z,4.25
2022-12-28T07:44:38.388Z,4.36
2022-12-28T07:52:14.408Z,4.43
2022-12-28T07:59:48.305Z,4.50
2022-12-28T08:07:24.007Z,4.54
2022-12-28T08:15:01.733Z,4.57
2022-12-28T08:22:37.077Z,4.60
2022-12-28T08:30:12.783Z,4.60
2022-12-28T08:37:48.151Z,4.65
2022-12-28T08:45:21.992Z,4.73
2022-12-28T08:52:57.319Z,4.83
2022-12-28T09:00:31.223Z,5.02
2022-12-28T09:08:07.283Z,5.07
2022-12-28T09:15:41.666Z,5.21
2022-12-28T09:23:16.971Z,5.25
2022-12-28T09:30:50.945Z,5.37
2022-12-28T09:38:26.506Z,5.47
2022-12-28T09:46:00.520Z,5.57
2022-12-28T09:53:37.244Z,5.61
2022-12-28T10:01:15.463Z,5.70
2022-12-28T10:08:54.298Z,5.83
2022-12-28T10:16:33.108Z,5.99
2022-12-28T10:32:06.535Z,6.24
2022-12-28T10:39:49.055Z,6.28
2022-12-28T10:47:31.658Z,6.40
2022-12-28T10:55:28.448Z,6.46
2022-12-28T11:03:18.940Z,6.53
2022-12-28T11:10:58.266Z,6.62
2022-12-28T11:18:37.837Z,6.78
2022-12-28T11:26:14.134Z,6.94
2022-12-28T11:33:52.081Z,7.17
2022-12-28T11:42:10.406Z,7.20
2022-12-28T11:49:40.486Z,7.30
2022-12-28T11:57:35.007Z,7.39
2022-12-28T12:05:41.948Z,7.47
2022-12-28T12:13:44.769Z,7.54
2022-12-28T12:21:31.916Z,7.60
2022-12-28T12:29:15.250Z,7.74
2022-12-28T12:37:18.924Z,7.88
2022-12-28T12:44:58.851Z,8.01
2022-12-28T12:52:42.729Z,8.06
2022-12-28T13:00:19.956Z,8.12
2022-12-28T13:07:56.699Z,8.22
2022-12-28T13:15:33.006Z,8.22
2022-12-28T13:23:07.748Z,8.27
2022-12-28T13:30:43.066Z,8.31
2022-12-28T13:38:18.612Z,8.24
2022-12-28T13:45:56.133Z,8.25
2022-12-28T13:53:32.261Z,8.27
2022-12-28T14:01:14.476Z,8.30
2022-12-28T14:08:49.057Z,8.22
2022-12-28T14:16:26.035Z,8.09
2022-12-28T14:24:05.651Z,8.00
2022-12-28T14:31:41.569Z,7.92
2022-12-28T14:39:26.606Z,7.89
2022-12-28T14:47:02.426Z,7.93
2022-12-28T14:54:45.492Z,8.02
2022-12-28T15:02:41.355Z,8.01
2022-12-28T15:10:17.366Z,7.89
2022-12-28T15:17:52.653Z,7.82
2022-12-28T15:25:26.528Z,7.82
2022-12-28T15:33:01.995Z,7.73
2022-12-28T15:40:36.066Z,7.71
2022-12-28T15:48:11.785Z,7.72
2022-12-28T15:55:45.806Z,7.74
2022-12-28T16:03:21.289Z,7.86
2022-12-28T16:10:55.371Z,7.86
2022-12-28T16:18:30.555Z,7.80
2022-12-28T16:26:05.221Z,7.77
2022-12-28T16:33:40.941Z,7.86
2022-12-28T16:41:14.825Z,7.90
2022-12-28T16:48:50.199Z,7.95
2022-12-28T16:56:24.388Z,7.96
2022-12-28T17:04:04.093Z,8.04
2022-12-28T17:11:38.517Z,7.99
2022-12-28T17:19:13.906Z,7.91
2022-12-28T17:26:48.415Z,7.85
2022-12-28T17:34:23.768Z,7.85
2022-12-28T17:41:57.732Z,7.91
2022-12-28T17:49:33.082Z,7.92
2022-12-28T17:57:07.001Z,7.94
2022-12-28T18:04:42.415Z,7.94
2022-12-28T18:12:18.273Z,7.97
2022-12-28T18:19:55.990Z,7.98
2022-12-28T18:27:29.979Z,8.02
2022-12-28T18:35:05.921Z,7.98
2022-12-28T18:42:44.085Z,7.97
2022-12-28T18:50:19.458Z,7.95
2022-12-28T18:57:53.401Z,7.90
2022-12-28T19:05:28.638Z,7.88
2022-12-28T19:13:02.451Z,7.80
2022-12-28T19:20:37.860Z,7.72
2022-12-28T19:28:12.408Z,7.66
2022-12-28T19:35:48.223Z,7.61
2022-12-28T19:43:22.288Z,7.56
2022-12-28T19:50:57.827Z,7.51
2022-12-28T19:58:33.576Z,7.44
2022-12-28T20:06:11.638Z,7.39
2022-12-28T20:13:50.211Z,7.36
2022-12-28T20:21:27.360Z,7.34
2022-12-28T20:29:04.222Z,7.27
2022-12-28T20:36:39.405Z,7.21
2022-12-28T20:44:15.385Z,7.25
2022-12-28T20:51:50.966Z,7.21
2022-12-28T20:59:26.204Z,7.27
2022-12-28T21:07:01.666Z,7.29
2022-12-28T21:14:35.588Z,7.34
2022-12-28T21:22:12.107Z,7.44
2022-12-28T21:29:46.337Z,7.45
2022-12-28T21:37:36.525Z,7.51
2022-12-28T21:45:11.544Z,7.58
2022-12-28T21:52:47.031Z,7.59
2022-12-28T22:00:39.279Z,7.70
2022-12-28T22:08:32.411Z,7.62
2022-12-28T22:16:06.571Z,7.63
2022-12-28T22:23:41.852Z,7.69
2022-12-28T22:31:16.149Z,7.80
2022-12-28T22:38:51.579Z,7.77
2022-12-28T22:46:25.647Z,7.77
2022-12-28T22:54:01.168Z,7.81
2022-12-28T23:01:35.246Z,7.77
2022-12-28T23:09:10.757Z,7.80
2022-12-28T23:16:44.763Z,7.78
2022-12-28T23:24:48.808Z,7.78
2022-12-28T23:32:24.253Z,7.85
2022-12-28T23:39:59.543Z,7.86
2022-12-28T23:47:33.845Z,7.86
2022-12-28T23:55:13.259Z,7.81
